Terminal Aerodrome Forecast
Issued by NWS Mt. Holly, NJ

Home | Current Version | Previous Version | Text Only | Print | Product List | Glossary On
Versions: 1 2 3 4 5 6 7 8 9 10 11 12 13 14 15 16 17 18 19
000
FTUS41 KPHI 050537
TAFILG
TAF
KILG 050537Z 0506/0606 VRB03KT P6SM BKN035 OVC050
     FM051200 VRB03KT P6SM SCT250
     FM051700 16005KT P6SM FEW050
     FM060100 15004KT P6SM SCT250=

USA.gov is the U.S. government's official web portal to all federal, state and local government web resources and services.